Guidonia, Italy

11:05 AM CET on February 13, 2016 (GMT +0100)
Tivoli (RM), Roma | | Change Station
CLOSE
Current Station
Personal Weather Station
Location: Tivoli, LAZIO
Elevation: 830 ft
Nearby Weather Stations

Elev 830 ft 41.96 °N, 12.80 °E | Updated 29 seconds ago

Mostly Cloudy
Mostly Cloudy
56.2 °F
Feels Like 56.2 °F
N
0.0
Wind Variable Wind from NW
Gusts 1.0 mph

Today
High -- | Low -- °F
--% Chance of Precip.
Yesterday
High -- | Low -- °F
Precip. -- in
Pressure 29.56 in
Visibility 6.2 miles
Clouds Few 1500 ft
Mostly Cloudy 2000 ft
Dew Point 52 °F
Humidity 85%
Rainfall 0.13 in
Snow Depth Not available.
7:08 AM 5:38 PM
Waxing Crescent, 29% visible
METAR LIRA 130950Z VRB02KT 9999 FEW015 BKN020 14/10 Q1001
Pressure 29.56 in
Visibility 6.2 miles
Clouds Few 1500 ft
Mostly Cloudy 2000 ft
Dew Point 52 °F
Humidity 85%
Rainfall 0.13 in
Snow Depth Not available.
7:08 AM 5:38 PM
Waxing Crescent, 29% visible
METAR LIRA 130950Z VRB02KT 9999 FEW015 BKN020 14/10 Q1001

10-Day Weather Forecast

Almanac

Astronomy

Feb. 13, 2016 Rise Set
Actual Time
Civil Twilight
Nautical Twilight
Astronomical Twilight
Moon
Length of Visible Light
Length of Day
Tomorrow will be .
, % of the Moon is Illuminated

Today's Extremes

Country Highs Country Lows

Community

WunderPhotos

Upload Photos

1,892,536 photos uploaded!

WunderBlog® & News

Nearby

Air Quality

  Air Quality AQ Index Pollutant
Not available.

Snow Depth

Station Depth Elevation

Earthquake Activity

City Distance Mag. Time & Date
Minimum magnitude displayed is 2.5.

Coastal Water Temperatures

Place Temperature

Stations

Nearby Weather Stations

Station Location Temp. Windchill Dew Point Humidity Wind Precip. Elev Updated Type